createdAt,value
2019-03-26T00:00:34.961Z,6.70
2019-03-26T00:03:04.459Z,6.70
2019-03-26T00:05:33.932Z,6.70
2019-03-26T00:08:03.438Z,6.70
2019-03-26T00:10:32.901Z,6.60
2019-03-26T00:13:02.373Z,6.60
2019-03-26T00:15:31.857Z,6.60
2019-03-26T00:18:01.323Z,6.60
2019-03-26T00:20:30.776Z,6.50
2019-03-26T00:23:00.272Z,6.60
2019-03-26T00:25:29.740Z,6.50
2019-03-26T00:27:59.206Z,6.50
2019-03-26T00:30:28.699Z,6.50
2019-03-26T00:32:58.159Z,6.50
2019-03-26T00:35:27.624Z,6.50
2019-03-26T00:37:57.117Z,6.50
2019-03-26T00:40:26.582Z,6.50
2019-03-26T00:42:56.084Z,6.50
2019-03-26T00:45:25.595Z,6.40
2019-03-26T00:47:55.065Z,6.30
2019-03-26T00:50:24.529Z,6.30
2019-03-26T00:52:54.113Z,6.30
2019-03-26T00:55:23.728Z,6.30
2019-03-26T00:57:53.209Z,6.30
2019-03-26T01:00:40.982Z,6.30
2019-03-26T01:03:10.453Z,6.20
2019-03-26T01:05:39.931Z,6.20
2019-03-26T01:08:09.418Z,6.20
2019-03-26T01:10:38.889Z,6.20
2019-03-26T01:13:08.398Z,6.10
2019-03-26T01:15:37.807Z,6.10
2019-03-26T01:18:07.270Z,6.00
2019-03-26T01:20:36.775Z,5.90
2019-03-26T01:23:06.264Z,6.00
2019-03-26T01:25:35.912Z,6.00
2019-03-26T01:28:05.580Z,5.90
2019-03-26T01:30:35.065Z,6.00
2019-03-26T01:33:04.472Z,6.00
2019-03-26T01:35:33.937Z,5.90
2019-03-26T01:38:03.431Z,5.90
2019-03-26T01:40:32.898Z,5.90
2019-03-26T01:43:02.393Z,5.90
2019-03-26T01:45:31.879Z,5.80
2019-03-26T01:48:01.376Z,5.70
2019-03-26T01:50:30.834Z,5.70
2019-03-26T01:53:00.330Z,5.70
2019-03-26T01:55:29.823Z,5.70
2019-03-26T01:57:59.292Z,5.60
2019-03-26T02:00:28.759Z,5.70
2019-03-26T02:02:58.311Z,5.70
2019-03-26T02:05:27.785Z,5.60
2019-03-26T02:07:57.246Z,5.70
2019-03-26T02:10:26.737Z,5.70
2019-03-26T02:12:56.299Z,5.70
2019-03-26T02:15:30.722Z,5.70
2019-03-26T02:18:00.583Z,5.70
2019-03-26T02:20:30.042Z,5.70
2019-03-26T02:22:59.631Z,5.60
2019-03-26T02:25:29.091Z,5.60
2019-03-26T02:27:58.588Z,5.60
2019-03-26T02:30:28.731Z,5.60
2019-03-26T02:32:58.937Z,5.60
2019-03-26T02:35:28.417Z,5.60
2019-03-26T02:37:58.125Z,5.60
2019-03-26T02:40:27.639Z,5.60
2019-03-26T02:42:57.099Z,5.50
2019-03-26T02:45:26.524Z,5.50
2019-03-26T02:47:55.996Z,5.40
2019-03-26T02:50:25.489Z,5.40
2019-03-26T02:52:54.976Z,5.40
2019-03-26T02:55:24.439Z,5.30
2019-03-26T02:57:53.897Z,5.30
2019-03-26T03:00:23.758Z,5.30
2019-03-26T03:02:53.215Z,5.30
2019-03-26T03:05:42.073Z,5.30
2019-03-26T03:08:11.534Z,5.30
2019-03-26T03:10:41.001Z,5.30
2019-03-26T03:13:10.493Z,5.30
2019-03-26T03:15:39.959Z,5.30
2019-03-26T03:18:09.426Z,5.20
2019-03-26T03:20:38.911Z,5.20
2019-03-26T03:23:08.379Z,5.20
2019-03-26T03:25:38.041Z,5.10
2019-03-26T03:28:07.547Z,5.10
2019-03-26T03:30:37.027Z,5.10
2019-03-26T03:33:06.488Z,5.10
2019-03-26T03:35:51.354Z,5.10
2019-03-26T03:38:07.305Z,5.10
2019-03-26T03:40:36.795Z,5.10
2019-03-26T03:43:06.259Z,5.10
2019-03-26T03:45:35.898Z,5.10
2019-03-26T03:48:05.591Z,5.00
2019-03-26T03:50:35.075Z,5.00
2019-03-26T03:53:04.543Z,5.00
2019-03-26T03:55:34.037Z,5.00
2019-03-26T03:58:03.696Z,5.00
2019-03-26T04:00:36.022Z,5.00
2019-03-26T04:03:06.128Z,5.00
2019-03-26T04:05:36.044Z,5.00
2019-03-26T04:08:05.531Z,5.10
2019-03-26T04:10:34.982Z,5.10
2019-03-26T04:13:04.567Z,5.10
2019-03-26T04:15:35.052Z,5.10
2019-03-26T04:18:04.911Z,5.10
2019-03-26T04:20:34.436Z,5.10
2019-03-26T04:23:03.918Z,5.20
2019-03-26T04:25:33.383Z,5.20
2019-03-26T04:28:02.846Z,5.10
2019-03-26T04:30:32.675Z,5.10
2019-03-26T04:33:02.233Z,5.00
2019-03-26T04:35:31.796Z,5.00
2019-03-26T04:38:01.287Z,4.90
2019-03-26T04:40:30.748Z,5.00
2019-03-26T04:43:00.230Z,5.00
2019-03-26T04:45:29.723Z,5.00
2019-03-26T04:47:59.224Z,5.00
2019-03-26T04:50:28.746Z,5.00
2019-03-26T04:52:58.244Z,5.00
2019-03-26T04:55:27.823Z,4.80
2019-03-26T04:57:57.306Z,4.90
2019-03-26T05:00:26.772Z,4.80
2019-03-26T05:02:56.346Z,4.80
2019-03-26T05:05:26.004Z,4.80
2019-03-26T05:07:57.261Z,4.80
2019-03-26T05:10:26.728Z,4.80
2019-03-26T05:12:56.727Z,4.80
2019-03-26T05:15:26.188Z,4.70
2019-03-26T05:17:56.835Z,4.70
2019-03-26T05:20:26.428Z,4.70
2019-03-26T05:22:56.073Z,4.70
2019-03-26T05:25:25.738Z,4.70
2019-03-26T05:27:55.220Z,4.70
2019-03-26T05:30:24.687Z,4.80
2019-03-26T05:32:54.193Z,4.80
2019-03-26T05:35:23.695Z,4.80
2019-03-26T05:37:53.154Z,4.80
2019-03-26T05:40:22.614Z,4.80
2019-03-26T05:42:52.108Z,4.80
2019-03-26T05:45:21.769Z,4.80
2019-03-26T05:47:51.239Z,4.80
2019-03-26T05:50:20.927Z,4.90
2019-03-26T05:52:50.461Z,4.90
2019-03-26T05:55:19.938Z,4.80
2019-03-26T05:58:08.831Z,4.90
2019-03-26T06:00:38.305Z,4.90
2019-03-26T06:03:07.765Z,4.90
2019-03-26T06:05:37.261Z,5.00
2019-03-26T06:08:06.714Z,5.10
2019-03-26T06:10:36.385Z,5.20
2019-03-26T06:13:05.869Z,5.20
2019-03-26T06:15:35.347Z,5.40
2019-03-26T06:18:04.858Z,5.40
2019-03-26T06:20:34.349Z,5.50
2019-03-26T06:23:03.803Z,5.50
2019-03-26T06:25:33.270Z,5.60
2019-03-26T06:28:02.934Z,5.60
2019-03-26T06:30:32.437Z,5.70
2019-03-26T06:33:01.908Z,5.70
2019-03-26T06:35:31.405Z,5.90
2019-03-26T06:38:00.878Z,5.80
2019-03-26T06:40:30.364Z,5.90
2019-03-26T06:42:59.842Z,6.00
2019-03-26T06:45:29.295Z,6.10
2019-03-26T06:47:58.787Z,6.20
2019-03-26T06:50:28.408Z,6.30
2019-03-26T06:52:57.860Z,6.40
2019-03-26T06:55:27.444Z,6.40
2019-03-26T06:57:56.902Z,6.50
2019-03-26T07:00:34.477Z,6.50
2019-03-26T07:03:05.464Z,6.60
2019-03-26T07:05:35.005Z,6.60
2019-03-26T07:08:04.511Z,6.60
2019-03-26T07:10:34.271Z,6.80
2019-03-26T07:13:03.723Z,6.80
2019-03-26T07:15:33.257Z,6.80
2019-03-26T07:18:02.712Z,6.70
2019-03-26T07:20:32.223Z,6.70
2019-03-26T07:23:01.721Z,6.80
2019-03-26T07:25:32.849Z,6.90
2019-03-26T07:28:02.364Z,6.80
2019-03-26T07:30:40.290Z,6.90
2019-03-26T07:33:09.755Z,6.90
2019-03-26T07:35:39.218Z,7.00
2019-03-26T07:38:08.721Z,7.00
2019-03-26T07:40:38.181Z,7.00
2019-03-26T07:43:07.642Z,7.10
2019-03-26T07:45:37.142Z,7.00
2019-03-26T07:48:06.593Z,7.10
2019-03-26T07:50:36.093Z,7.10
2019-03-26T07:53:05.566Z,7.20
2019-03-26T07:55:35.033Z,7.30
2019-03-26T07:58:04.501Z,7.50
2019-03-26T08:00:35.786Z,7.50
2019-03-26T08:03:05.850Z,7.50
2019-03-26T08:05:35.329Z,7.60
2019-03-26T08:08:04.917Z,7.60
2019-03-26T08:10:34.487Z,7.60
2019-03-26T08:13:03.993Z,7.60
2019-03-26T08:15:33.450Z,7.70
2019-03-26T08:18:02.834Z,7.80
2019-03-26T08:20:32.315Z,7.70
2019-03-26T08:23:01.808Z,7.80
2019-03-26T08:25:33.764Z,7.90
2019-03-26T08:28:04.877Z,8.00
2019-03-26T08:30:33.675Z,8.10
2019-03-26T08:33:03.236Z,8.20
2019-03-26T08:35:32.702Z,8.30
2019-03-26T08:38:12.392Z,8.30
2019-03-26T08:40:33.369Z,8.30
2019-03-26T08:43:02.828Z,8.40
2019-03-26T08:45:32.332Z,8.40
2019-03-26T08:48:01.910Z,8.50
2019-03-26T08:50:31.392Z,8.60
2019-03-26T08:53:01.161Z,8.80
2019-03-26T08:55:30.732Z,8.80
2019-03-26T08:58:00.259Z,8.90
2019-03-26T09:00:32.089Z,9.00
2019-03-26T09:03:01.029Z,9.10
2019-03-26T09:05:30.486Z,9.10
2019-03-26T09:08:00.286Z,9.20
2019-03-26T09:10:29.733Z,9.20
2019-03-26T09:12:59.226Z,9.20
2019-03-26T09:15:28.708Z,9.20
2019-03-26T09:18:00.309Z,9.20
2019-03-26T09:20:29.362Z,9.30
2019-03-26T09:22:58.837Z,9.20
2019-03-26T09:25:28.305Z,9.20
2019-03-26T09:27:58.043Z,9.30
2019-03-26T09:30:27.529Z,9.50
2019-03-26T09:32:56.991Z,9.60
2019-03-26T09:35:26.454Z,9.70
2019-03-26T09:37:55.888Z,9.80
2019-03-26T09:40:25.355Z,9.90
2019-03-26T09:42:54.811Z,10.00
2019-03-26T09:45:24.347Z,10.10
2019-03-26T09:47:53.818Z,10.20
2019-03-26T09:50:33.447Z,10.40
2019-03-26T09:53:02.920Z,10.50
2019-03-26T09:55:32.406Z,10.70
2019-03-26T09:58:01.910Z,10.80
2019-03-26T10:00:31.409Z,10.90
2019-03-26T10:03:01.220Z,10.90
2019-03-26T10:05:30.728Z,10.90
2019-03-26T10:08:00.204Z,11.20
2019-03-26T10:10:29.698Z,11.30
2019-03-26T10:12:59.207Z,11.50
2019-03-26T10:15:28.704Z,11.90
2019-03-26T10:17:58.180Z,11.90
2019-03-26T10:20:27.683Z,12.00
2019-03-26T10:22:57.148Z,11.80
2019-03-26T10:25:26.649Z,11.80
2019-03-26T10:27:56.148Z,12.20
2019-03-26T10:30:39.282Z,12.30
2019-03-26T10:33:08.787Z,12.40
2019-03-26T10:35:38.260Z,12.20
2019-03-26T10:38:07.754Z,12.30
2019-03-26T10:40:39.058Z,12.50
2019-03-26T10:43:08.517Z,12.60
2019-03-26T10:45:37.995Z,12.80
2019-03-26T10:48:07.493Z,13.20
2019-03-26T10:50:36.994Z,13.40
2019-03-26T10:53:06.468Z,14.00
2019-03-26T10:55:36.063Z,14.20
2019-03-26T10:58:05.535Z,14.30
2019-03-26T11:00:35.007Z,14.10
2019-03-26T11:03:04.516Z,14.40
2019-03-26T11:05:34.000Z,14.60
2019-03-26T11:08:03.471Z,14.20
2019-03-26T11:10:32.974Z,14.30
2019-03-26T11:13:02.454Z,14.20
2019-03-26T11:15:31.929Z,14.00
2019-03-26T11:18:01.434Z,14.00
2019-03-26T11:20:30.894Z,14.10
2019-03-26T11:23:00.401Z,14.30
2019-03-26T11:25:29.868Z,14.40
2019-03-26T11:27:59.351Z,15.00
2019-03-26T11:30:28.818Z,15.20
2019-03-26T11:32:58.302Z,15.20
2019-03-26T11:35:27.827Z,15.00
2019-03-26T11:37:57.449Z,15.10
2019-03-26T11:40:26.944Z,15.00
2019-03-26T11:42:56.448Z,15.20
2019-03-26T11:45:25.960Z,15.50
2019-03-26T11:47:55.437Z,15.90
2019-03-26T11:50:24.915Z,16.20
2019-03-26T11:52:54.411Z,16.30
2019-03-26T11:55:23.894Z,16.20
2019-03-26T11:57:53.391Z,16.40
2019-03-26T12:00:24.556Z,16.20
2019-03-26T12:02:54.010Z,16.60
2019-03-26T12:05:23.501Z,17.20
2019-03-26T12:07:52.998Z,18.90
2019-03-26T12:10:22.468Z,21.70
2019-03-26T12:12:51.972Z,24.00
2019-03-26T12:15:21.454Z,26.10
2019-03-26T12:17:50.933Z,25.30
2019-03-26T12:20:20.432Z,26.20
2019-03-26T12:22:49.902Z,26.10
2019-03-26T12:25:19.364Z,27.10
2019-03-26T12:27:48.871Z,28.90
2019-03-26T12:30:23.022Z,29.40
2019-03-26T12:32:52.533Z,27.80
2019-03-26T12:35:29.786Z,27.90
2019-03-26T12:37:59.785Z,27.80
2019-03-26T12:40:29.254Z,28.60
2019-03-26T12:42:58.856Z,28.60
2019-03-26T12:45:28.359Z,28.00
2019-03-26T12:47:57.825Z,28.90
2019-03-26T12:50:27.299Z,29.70
2019-03-26T12:52:56.804Z,30.90
2019-03-26T12:55:26.279Z,31.40
2019-03-26T12:57:55.853Z,30.70
2019-03-26T13:00:31.762Z,30.90
2019-03-26T13:03:01.932Z,31.40
2019-03-26T13:05:31.416Z,31.20
2019-03-26T13:08:00.916Z,29.80
2019-03-26T13:10:30.386Z,28.60
2019-03-26T13:12:59.856Z,26.90
2019-03-26T13:15:29.359Z,27.20
2019-03-26T13:17:58.830Z,28.10
2019-03-26T13:20:28.315Z,27.80
2019-03-26T13:22:57.828Z,28.70
2019-03-26T13:25:27.307Z,26.80
2019-03-26T13:27:57.099Z,27.70
2019-03-26T13:30:26.598Z,27.60
2019-03-26T13:32:56.200Z,27.30
2019-03-26T13:35:25.758Z,28.40
2019-03-26T13:37:55.255Z,29.70
2019-03-26T13:40:27.430Z,30.30
2019-03-26T13:42:56.914Z,30.60
2019-03-26T13:45:26.380Z,30.90
2019-03-26T13:47:55.848Z,32.40
2019-03-26T13:50:25.349Z,32.20
2019-03-26T13:52:54.838Z,30.80
2019-03-26T13:55:24.350Z,29.20
2019-03-26T13:57:53.883Z,29.20
2019-03-26T14:00:33.107Z,28.90
2019-03-26T14:03:02.608Z,28.10
2019-03-26T14:05:32.077Z,27.70
2019-03-26T14:08:01.491Z,28.00
2019-03-26T14:10:40.669Z,29.10
2019-03-26T14:13:02.238Z,30.00
2019-03-26T14:15:31.754Z,29.90
2019-03-26T14:18:01.259Z,29.70
2019-03-26T14:20:30.782Z,29.00
2019-03-26T14:23:00.281Z,28.60
2019-03-26T14:25:29.780Z,28.10
2019-03-26T14:27:59.363Z,27.40
2019-03-26T14:30:37.634Z,27.60
2019-03-26T14:33:07.230Z,27.50
2019-03-26T14:35:36.923Z,26.90
2019-03-26T14:38:06.415Z,27.50
2019-03-26T14:40:35.872Z,28.00
2019-03-26T14:43:06.057Z,27.40
2019-03-26T14:45:35.560Z,27.30
2019-03-26T14:48:05.037Z,27.10
2019-03-26T14:50:34.530Z,26.50
2019-03-26T14:53:23.438Z,25.90
2019-03-26T14:55:52.913Z,25.30
2019-03-26T14:58:22.389Z,25.10
2019-03-26T15:00:51.892Z,25.40
2019-03-26T15:03:21.370Z,25.00
2019-03-26T15:05:50.957Z,25.00
2019-03-26T15:08:39.819Z,25.10
2019-03-26T15:11:28.648Z,25.30
2019-03-26T15:13:58.160Z,24.20
2019-03-26T15:16:27.630Z,23.20
2019-03-26T15:18:57.223Z,23.10
2019-03-26T15:21:26.817Z,22.50
2019-03-26T15:23:56.299Z,22.00
2019-03-26T15:26:45.317Z,21.10
2019-03-26T15:29:14.795Z,20.20
2019-03-26T15:31:44.285Z,19.70
2019-03-26T15:34:13.842Z,19.50
2019-03-26T15:36:43.406Z,19.90
2019-03-26T15:39:12.901Z,20.00
2019-03-26T15:41:42.493Z,20.20
2019-03-26T15:44:11.972Z,20.00
2019-03-26T15:46:41.461Z,19.90
2019-03-26T15:49:10.941Z,19.30
2019-03-26T15:51:40.424Z,19.20
2019-03-26T15:54:09.916Z,19.00
2019-03-26T15:56:39.523Z,18.70
2019-03-26T15:59:09.047Z,18.50
2019-03-26T16:01:38.544Z,17.90
2019-03-26T16:04:08.058Z,17.00
2019-03-26T16:06:37.536Z,16.60
2019-03-26T16:09:09.118Z,16.80
2019-03-26T16:11:38.705Z,16.50
2019-03-26T16:14:08.336Z,16.20
2019-03-26T16:16:39.044Z,15.90
2019-03-26T16:19:08.488Z,16.00
2019-03-26T16:21:38.082Z,15.90
2019-03-26T16:24:07.651Z,15.60
2019-03-26T16:26:37.118Z,15.30
2019-03-26T16:29:06.645Z,15.00
2019-03-26T16:31:36.180Z,14.80
2019-03-26T16:34:05.655Z,14.50
2019-03-26T16:36:35.154Z,14.30
2019-03-26T16:39:06.672Z,14.20
2019-03-26T16:41:48.380Z,14.00
2019-03-26T16:44:07.346Z,14.00
2019-03-26T16:46:36.849Z,14.00
2019-03-26T16:49:06.326Z,13.90
2019-03-26T16:51:37.004Z,13.60
2019-03-26T16:54:06.479Z,13.50
2019-03-26T16:56:35.958Z,13.10
2019-03-26T16:59:05.419Z,12.70
2019-03-26T17:01:34.939Z,12.00
2019-03-26T17:04:04.407Z,11.80
2019-03-26T17:06:33.919Z,11.60
2019-03-26T17:09:04.299Z,11.20
2019-03-26T17:11:33.862Z,11.10
2019-03-26T17:14:03.459Z,10.90
2019-03-26T17:16:32.933Z,10.80
2019-03-26T17:19:02.436Z,10.70
2019-03-26T17:21:31.951Z,10.60
2019-03-26T17:24:01.413Z,10.50
2019-03-26T17:26:31.021Z,10.40
2019-03-26T17:29:00.526Z,10.30
2019-03-26T17:31:30.196Z,10.30
2019-03-26T17:33:59.669Z,10.20
2019-03-26T17:36:30.181Z,10.00
2019-03-26T17:38:59.649Z,9.90
2019-03-26T17:41:29.148Z,9.80
2019-03-26T17:43:58.624Z,9.70
2019-03-26T17:46:28.079Z,9.60
2019-03-26T17:48:57.585Z,9.60
2019-03-26T17:51:27.040Z,9.50
2019-03-26T17:53:56.527Z,9.50
2019-03-26T17:56:26.010Z,9.50
2019-03-26T17:58:55.491Z,9.50
2019-03-26T18:01:24.993Z,9.50
2019-03-26T18:03:54.488Z,9.50
2019-03-26T18:06:23.960Z,9.40
2019-03-26T18:08:53.463Z,9.40
2019-03-26T18:11:22.944Z,9.30
2019-03-26T18:13:52.424Z,9.30
2019-03-26T18:16:21.924Z,9.30
2019-03-26T18:18:51.386Z,9.20
2019-03-26T18:21:20.850Z,9.20
2019-03-26T18:23:50.364Z,9.20
2019-03-26T18:26:19.845Z,9.20
2019-03-26T18:28:49.353Z,9.10
2019-03-26T18:31:18.901Z,9.10
2019-03-26T18:33:48.365Z,9.00
2019-03-26T18:36:17.928Z,9.00
2019-03-26T18:38:47.383Z,9.00
2019-03-26T18:41:16.874Z,9.00
2019-03-26T18:43:46.341Z,8.90
2019-03-26T18:46:15.909Z,8.80
2019-03-26T18:48:45.404Z,8.80
2019-03-26T18:51:14.866Z,8.80
2019-03-26T18:53:44.319Z,8.70
2019-03-26T18:56:13.817Z,8.70
2019-03-26T18:58:43.290Z,8.70
2019-03-26T19:01:12.762Z,8.70
2019-03-26T19:03:42.462Z,8.60
2019-03-26T19:06:11.887Z,8.60
2019-03-26T19:08:41.354Z,8.50
2019-03-26T19:11:10.824Z,8.40
2019-03-26T19:13:40.336Z,8.30
2019-03-26T19:16:09.780Z,8.30
2019-03-26T19:18:39.244Z,8.40
2019-03-26T19:21:08.748Z,8.40
2019-03-26T19:23:38.251Z,8.40
2019-03-26T19:26:07.759Z,8.30
2019-03-26T19:28:37.224Z,8.30
2019-03-26T19:31:06.700Z,8.30
2019-03-26T19:33:36.200Z,8.30
2019-03-26T19:36:05.705Z,8.30
2019-03-26T19:38:35.203Z,8.20
2019-03-26T19:41:04.662Z,8.20
2019-03-26T19:43:34.266Z,8.20
2019-03-26T19:46:03.770Z,8.10
2019-03-26T19:48:33.331Z,7.90
2019-03-26T19:51:02.842Z,7.90
2019-03-26T19:53:32.331Z,7.80
2019-03-26T19:56:01.793Z,7.80
2019-03-26T19:58:31.294Z,7.80
2019-03-26T20:01:02.146Z,7.70
2019-03-26T20:03:31.646Z,7.60
2019-03-26T20:06:12.702Z,7.60
2019-03-26T20:08:32.368Z,7.50
2019-03-26T20:11:01.859Z,7.40
2019-03-26T20:13:31.323Z,7.40
2019-03-26T20:16:00.862Z,7.40
2019-03-26T20:18:30.381Z,7.30
2019-03-26T20:20:59.954Z,7.30
2019-03-26T20:23:29.401Z,7.20
2019-03-26T20:26:06.971Z,7.20
2019-03-26T20:28:36.445Z,7.10
2019-03-26T20:31:05.920Z,7.10
2019-03-26T20:33:35.436Z,7.00
2019-03-26T20:36:04.876Z,7.00
2019-03-26T20:38:34.385Z,6.90
2019-03-26T20:41:03.855Z,6.80
2019-03-26T20:43:37.622Z,6.80
2019-03-26T20:46:05.872Z,6.70
2019-03-26T20:48:36.225Z,6.60
2019-03-26T20:51:05.701Z,6.50
2019-03-26T20:53:35.177Z,6.40
2019-03-26T20:56:04.656Z,6.40
2019-03-26T20:58:34.128Z,6.40
2019-03-26T21:01:03.594Z,6.40
2019-03-26T21:03:33.097Z,6.40
2019-03-26T21:06:02.578Z,6.40
2019-03-26T21:08:32.061Z,6.30
2019-03-26T21:11:01.524Z,6.20
2019-03-26T21:13:30.959Z,6.20
2019-03-26T21:16:00.421Z,6.10
2019-03-26T21:18:30.020Z,6.10
2019-03-26T21:20:59.692Z,6.00
2019-03-26T21:23:29.456Z,6.00
2019-03-26T21:25:58.950Z,5.90
2019-03-26T21:28:28.410Z,5.90
2019-03-26T21:30:57.871Z,5.90
2019-03-26T21:33:27.395Z,5.90
2019-03-26T21:35:58.334Z,5.90
2019-03-26T21:38:27.804Z,6.00
2019-03-26T21:40:57.309Z,5.90
2019-03-26T21:43:26.788Z,5.80
2019-03-26T21:45:56.439Z,5.80
2019-03-26T21:48:25.935Z,5.80
2019-03-26T21:50:55.407Z,5.80
2019-03-26T21:53:24.914Z,5.80
2019-03-26T21:56:05.714Z,5.70
2019-03-26T21:58:25.611Z,5.70
2019-03-26T22:00:55.119Z,5.60
2019-03-26T22:03:24.660Z,5.60
2019-03-26T22:05:54.133Z,5.40
2019-03-26T22:08:23.616Z,5.30
2019-03-26T22:10:53.120Z,5.30
2019-03-26T22:13:22.647Z,5.30
2019-03-26T22:15:52.146Z,5.30
2019-03-26T22:18:21.635Z,5.30
2019-03-26T22:20:51.105Z,5.30
2019-03-26T22:23:22.486Z,5.30
2019-03-26T22:25:52.019Z,5.30
2019-03-26T22:28:21.630Z,5.20
2019-03-26T22:30:51.065Z,5.20
2019-03-26T22:33:39.956Z,5.20
2019-03-26T22:36:09.418Z,5.10
2019-03-26T22:38:38.880Z,5.00
2019-03-26T22:41:08.382Z,5.00
2019-03-26T22:43:37.853Z,4.80
2019-03-26T22:46:07.311Z,4.80
2019-03-26T22:48:36.805Z,4.80
2019-03-26T22:51:06.324Z,4.80
2019-03-26T22:53:35.793Z,4.80
2019-03-26T22:56:05.423Z,4.80
2019-03-26T22:58:34.875Z,4.80
2019-03-26T23:01:04.491Z,4.80
2019-03-26T23:03:33.943Z,4.80
2019-03-26T23:06:03.465Z,4.70
2019-03-26T23:08:33.064Z,4.70
2019-03-26T23:11:02.658Z,4.60
2019-03-26T23:13:32.235Z,4.70
2019-03-26T23:16:01.726Z,4.70
2019-03-26T23:18:31.281Z,4.80
2019-03-26T23:21:00.861Z,4.70
2019-03-26T23:23:30.353Z,4.70
2019-03-26T23:25:59.844Z,4.80
2019-03-26T23:28:29.305Z,4.80
2019-03-26T23:30:58.786Z,4.90
2019-03-26T23:33:28.266Z,4.90
2019-03-26T23:35:57.716Z,4.90
2019-03-26T23:38:27.219Z,4.90
2019-03-26T23:40:56.682Z,5.00
2019-03-26T23:43:26.151Z,4.90
2019-03-26T23:45:55.640Z,5.00
2019-03-26T23:48:25.101Z,5.00
2019-03-26T23:50:54.555Z,5.00
2019-03-26T23:53:24.050Z,4.90
2019-03-26T23:55:53.622Z,5.00
2019-03-26T23:58:23.367Z,4.90
